createdAt,value
2017-08-09T00:02:00.099Z,98749.30
2017-08-09T00:04:29.556Z,98740.00
2017-08-09T00:06:59.005Z,98727.33
2017-08-09T00:09:28.287Z,98703.44
2017-08-09T00:11:57.752Z,98698.08
2017-08-09T00:14:27.225Z,98702.08
2017-08-09T00:16:56.684Z,98698.89
2017-08-09T00:19:26.143Z,98700.89
2017-08-09T00:21:55.596Z,98691.06
2017-08-09T00:24:25.055Z,98680.81
2017-08-09T00:26:54.524Z,98685.56
2017-08-09T00:29:23.990Z,98684.59
2017-08-09T00:31:53.433Z,98680.91
2017-08-09T00:34:22.881Z,98682.09
2017-08-09T00:36:52.366Z,98680.05
2017-08-09T00:39:21.827Z,98680.45
2017-08-09T00:41:51.261Z,98683.47
2017-08-09T00:44:20.724Z,98677.95
2017-08-09T00:46:50.190Z,98680.86
2017-08-09T00:49:19.641Z,98686.35
2017-08-09T00:51:49.097Z,98690.44
2017-08-09T00:54:18.550Z,98687.80
2017-08-09T00:56:48.017Z,98696.13
2017-08-09T00:59:17.494Z,98684.95
2017-08-09T01:01:46.946Z,98678.59
2017-08-09T01:04:16.398Z,98688.27
2017-08-09T01:06:45.873Z,98680.77
2017-08-09T01:09:15.346Z,98678.91
2017-08-09T01:11:44.799Z,98656.56
2017-08-09T01:14:14.262Z,98643.36
2017-08-09T01:16:43.722Z,98646.27
2017-08-09T01:19:13.198Z,98645.09
2017-08-09T01:21:42.664Z,98656.72
2017-08-09T01:24:12.156Z,98652.95
2017-08-09T01:26:41.597Z,98636.89
2017-08-09T01:29:11.201Z,98631.61
2017-08-09T01:31:40.677Z,98619.09
2017-08-09T01:34:10.141Z,98610.06
2017-08-09T01:36:39.600Z,98623.96
2017-08-09T01:39:09.059Z,98625.55
2017-08-09T01:41:38.509Z,98619.78
2017-08-09T01:44:07.959Z,98607.84
2017-08-09T01:46:37.414Z,98606.98
2017-08-09T01:49:06.865Z,98613.84
2017-08-09T01:51:36.329Z,98607.77
2017-08-09T01:54:05.773Z,98604.67
2017-08-09T01:56:35.212Z,98609.22
2017-08-09T01:59:04.332Z,98600.91
2017-08-09T02:01:33.773Z,98602.14
2017-08-09T02:04:03.285Z,98593.66
2017-08-09T02:06:32.575Z,98589.30
2017-08-09T02:09:02.025Z,98585.95
2017-08-09T02:11:31.528Z,98584.78
2017-08-09T02:14:00.941Z,98604.00
2017-08-09T02:16:30.402Z,98601.66
2017-08-09T02:18:59.860Z,98605.10
2017-08-09T02:21:29.320Z,98613.86
2017-08-09T02:23:58.768Z,98623.28
2017-08-09T02:26:28.237Z,98619.06
2017-08-09T02:28:57.695Z,98593.29
2017-08-09T02:31:27.205Z,98605.27
2017-08-09T02:33:56.674Z,98619.02
2017-08-09T02:36:26.178Z,98613.61
2017-08-09T02:38:55.653Z,98615.11
2017-08-09T02:41:25.123Z,98611.70
2017-08-09T02:43:54.620Z,98612.94
2017-08-09T02:46:24.056Z,98614.75
2017-08-09T02:48:53.518Z,98620.28
2017-08-09T02:51:23.008Z,98617.33
2017-08-09T02:53:52.460Z,98614.34
2017-08-09T02:56:21.929Z,98623.69
2017-08-09T02:58:51.392Z,98621.41
2017-08-09T03:01:20.869Z,98630.70
2017-08-09T03:03:50.345Z,98624.31
2017-08-09T03:06:19.820Z,98612.78
2017-08-09T03:08:49.290Z,98603.85
2017-08-09T03:11:20.093Z,98607.83
2017-08-09T03:13:49.580Z,98617.08
2017-08-09T03:16:19.041Z,98617.09
2017-08-09T03:18:48.619Z,98630.31
2017-08-09T03:21:18.072Z,98642.69
2017-08-09T03:23:47.526Z,98650.03
2017-08-09T03:26:16.991Z,98659.17
2017-08-09T03:28:46.458Z,98669.78
2017-08-09T03:31:15.950Z,98665.13
2017-08-09T03:33:45.462Z,98664.72
2017-08-09T03:36:14.942Z,98664.58
2017-08-09T03:38:44.435Z,98680.22
2017-08-09T03:41:13.902Z,98676.69
2017-08-09T03:43:43.347Z,98667.98
2017-08-09T03:46:12.800Z,98671.11
2017-08-09T03:48:42.265Z,98683.83
2017-08-09T03:51:11.721Z,98684.71
2017-08-09T03:53:41.935Z,98705.94
2017-08-09T03:56:11.385Z,98707.22
2017-08-09T03:58:40.841Z,98711.16
2017-08-09T04:01:10.302Z,98712.63
2017-08-09T04:03:39.761Z,98715.98
2017-08-09T04:06:09.245Z,98733.81
2017-08-09T04:08:38.704Z,98737.42
2017-08-09T04:11:08.161Z,98746.81
2017-08-09T04:13:37.603Z,98742.25
2017-08-09T04:16:07.085Z,98749.39
2017-08-09T04:18:36.542Z,98764.56
2017-08-09T04:21:06.014Z,98758.53
2017-08-09T04:23:35.499Z,98765.47
2017-08-09T04:26:04.955Z,98776.02
2017-08-09T04:28:34.434Z,98772.83
2017-08-09T04:31:03.880Z,98783.27
2017-08-09T04:33:33.350Z,98782.69
2017-08-09T04:36:02.799Z,98795.45
2017-08-09T04:38:32.265Z,98799.59
2017-08-09T04:41:01.733Z,98793.61
2017-08-09T04:43:31.206Z,98794.56
2017-08-09T04:46:00.742Z,98794.16
2017-08-09T04:48:30.213Z,98805.00
2017-08-09T04:50:59.671Z,98785.45
2017-08-09T04:53:29.117Z,98788.71
2017-08-09T04:55:58.572Z,98794.92
2017-08-09T04:58:28.037Z,98810.88
2017-08-09T05:00:57.556Z,98805.47
2017-08-09T05:03:27.028Z,98806.97
2017-08-09T05:05:56.479Z,98799.94
2017-08-09T05:08:25.940Z,98791.55
2017-08-09T05:10:55.389Z,98781.64
2017-08-09T05:13:24.848Z,98787.16
2017-08-09T05:15:54.300Z,98813.66
2017-08-09T05:18:23.768Z,98809.06
2017-08-09T05:20:53.211Z,98813.00
2017-08-09T05:23:22.661Z,98816.61
2017-08-09T05:25:52.121Z,98816.00
2017-08-09T05:28:21.564Z,98797.84
2017-08-09T05:30:51.034Z,98792.39
2017-08-09T05:33:20.461Z,98788.10
2017-08-09T05:35:49.896Z,98778.89
2017-08-09T05:38:19.374Z,98791.20
2017-08-09T05:40:48.820Z,98806.05
2017-08-09T05:43:18.269Z,98812.03
2017-08-09T05:45:47.720Z,98806.27
2017-08-09T05:48:17.181Z,98817.33
2017-08-09T05:50:46.618Z,98837.69
2017-08-09T05:53:16.070Z,98849.03
2017-08-09T05:55:45.509Z,98849.45
2017-08-09T05:58:14.948Z,98846.72
2017-08-09T06:00:44.400Z,98840.27
2017-08-09T06:03:13.842Z,98821.92
2017-08-09T06:05:43.291Z,98808.86
2017-08-09T06:08:12.737Z,98814.06
2017-08-09T06:10:42.199Z,98824.04
2017-08-09T06:13:11.636Z,98828.20
2017-08-09T06:15:41.105Z,98827.11
2017-08-09T06:18:10.565Z,98831.47
2017-08-09T06:20:40.022Z,98830.72
2017-08-09T06:23:09.530Z,98851.11
2017-08-09T06:25:38.955Z,98853.44
2017-08-09T06:28:08.417Z,98863.23
2017-08-09T06:30:37.929Z,98869.50
2017-08-09T06:33:07.440Z,98862.29
2017-08-09T06:35:36.737Z,98846.28
2017-08-09T06:38:06.277Z,98840.42
2017-08-09T06:40:35.698Z,98832.16
2017-08-09T06:43:05.180Z,98839.95
2017-08-09T06:45:34.681Z,98845.00
2017-08-09T06:48:04.179Z,98842.05
2017-08-09T06:50:33.618Z,98848.16
2017-08-09T06:53:02.916Z,98865.19
2017-08-09T06:55:32.448Z,98869.56
2017-08-09T06:58:01.922Z,98865.84
2017-08-09T07:00:31.376Z,98856.68
2017-08-09T07:03:00.824Z,98855.27
2017-08-09T07:05:30.271Z,98850.59
2017-08-09T07:08:01.208Z,98849.06
2017-08-09T07:10:30.655Z,98847.27
2017-08-09T07:13:00.111Z,98842.53
2017-08-09T07:15:29.570Z,98823.41
2017-08-09T07:17:59.010Z,98814.70
2017-08-09T07:20:28.448Z,98822.11
2017-08-09T07:22:57.891Z,98820.04
2017-08-09T07:25:27.342Z,98812.89
2017-08-09T07:27:56.809Z,98798.59
2017-08-09T07:30:26.274Z,98804.30
2017-08-09T07:32:55.716Z,98807.72
2017-08-09T07:35:25.200Z,98797.42
2017-08-09T07:37:54.643Z,98787.19
2017-08-09T07:40:24.107Z,98788.58
2017-08-09T07:42:53.587Z,98784.03
2017-08-09T07:45:23.045Z,98777.98
2017-08-09T07:47:52.485Z,98786.03
2017-08-09T07:50:21.987Z,98798.81
2017-08-09T07:52:51.444Z,98794.12
2017-08-09T07:55:20.921Z,98794.42
2017-08-09T07:57:50.362Z,98790.39
2017-08-09T08:00:19.841Z,98795.23
2017-08-09T08:02:49.270Z,98796.84
2017-08-09T08:05:18.816Z,98787.91
2017-08-09T08:07:48.254Z,98787.33
2017-08-09T08:10:17.749Z,98789.34
2017-08-09T08:12:47.185Z,98782.70
2017-08-09T08:15:16.787Z,98779.94
2017-08-09T08:17:46.206Z,98777.26
2017-08-09T08:20:15.696Z,98772.98
2017-08-09T08:22:45.139Z,98777.41
2017-08-09T08:25:14.639Z,98779.20
2017-08-09T08:27:44.063Z,98786.00
2017-08-09T08:30:13.558Z,98781.52
2017-08-09T08:32:43.014Z,98785.64
2017-08-09T08:35:12.516Z,98774.78
2017-08-09T08:37:41.969Z,98769.13
2017-08-09T08:40:11.465Z,98777.64
2017-08-09T08:42:40.944Z,98773.63
2017-08-09T08:45:10.393Z,98769.58
2017-08-09T08:47:39.838Z,98765.55
2017-08-09T08:50:09.330Z,98755.94
2017-08-09T08:52:38.768Z,98756.45
2017-08-09T08:55:08.269Z,98765.72
2017-08-09T08:57:37.715Z,98762.00
2017-08-09T09:00:07.211Z,98747.48
2017-08-09T09:02:36.660Z,98744.47
2017-08-09T09:05:06.125Z,98744.72
2017-08-09T09:07:35.551Z,98736.59
2017-08-09T09:10:05.047Z,98740.78
2017-08-09T09:12:34.498Z,98734.85
2017-08-09T09:15:03.975Z,98731.94
2017-08-09T09:17:33.446Z,98720.13
2017-08-09T09:20:02.936Z,98725.79
2017-08-09T09:22:32.372Z,98713.91
2017-08-09T09:25:01.831Z,98718.50
2017-08-09T09:27:31.276Z,98707.61
2017-08-09T09:30:00.783Z,98711.45
2017-08-09T09:32:30.234Z,98712.45
2017-08-09T09:34:59.691Z,98720.34
2017-08-09T09:37:29.131Z,98723.03
2017-08-09T09:39:58.581Z,98706.09
2017-08-09T09:42:28.016Z,98695.55
2017-08-09T09:44:57.466Z,98693.13
2017-08-09T09:47:26.912Z,98691.23
2017-08-09T09:49:56.370Z,98689.79
2017-08-09T09:52:25.823Z,98684.16
2017-08-09T09:54:55.257Z,98687.06
2017-08-09T09:57:24.715Z,98686.85
2017-08-09T09:59:54.150Z,98686.05
2017-08-09T10:02:23.588Z,98679.49
2017-08-09T10:04:53.020Z,98675.74
2017-08-09T10:07:22.473Z,98668.97
2017-08-09T10:09:51.946Z,98668.20
2017-08-09T10:12:21.410Z,98659.61
2017-08-09T10:14:50.842Z,98661.36
2017-08-09T10:17:20.284Z,98660.13
2017-08-09T10:19:49.730Z,98654.10
2017-08-09T10:22:19.165Z,98648.40
2017-08-09T10:24:48.610Z,98649.12
2017-08-09T10:27:18.081Z,98647.94
2017-08-09T10:29:47.525Z,98632.87
2017-08-09T10:32:16.954Z,98636.66
2017-08-09T10:34:46.408Z,98638.47
2017-08-09T10:37:15.903Z,98634.87
2017-08-09T10:39:45.337Z,98623.20
2017-08-09T10:42:14.781Z,98615.32
2017-08-09T10:44:44.240Z,98609.81
2017-08-09T10:47:13.680Z,98613.80
2017-08-09T10:49:43.117Z,98612.64
2017-08-09T10:52:12.596Z,98604.44
2017-08-09T10:54:42.030Z,98603.94
2017-08-09T10:57:11.476Z,98599.58
2017-08-09T10:59:40.920Z,98578.77
2017-08-09T11:02:10.377Z,98582.41
2017-08-09T11:04:39.856Z,98575.66
2017-08-09T11:07:09.348Z,98578.11
2017-08-09T11:09:38.823Z,98574.16
2017-08-09T11:12:08.269Z,98565.27
2017-08-09T11:14:37.709Z,98557.97
2017-08-09T11:17:07.169Z,98557.66
2017-08-09T11:19:36.619Z,98559.57
2017-08-09T11:22:06.072Z,98551.84
2017-08-09T11:24:35.520Z,98553.69
2017-08-09T11:27:04.999Z,98541.61
2017-08-09T11:29:34.443Z,98537.70
2017-08-09T11:32:03.870Z,98543.97
2017-08-09T11:34:33.317Z,98536.23
2017-08-09T11:37:02.781Z,98533.47
2017-08-09T11:39:32.216Z,98529.19
2017-08-09T11:42:01.674Z,98528.09
2017-08-09T11:44:31.809Z,98521.38
2017-08-09T11:47:01.272Z,98513.25
2017-08-09T11:49:30.716Z,98507.67
2017-08-09T11:52:00.157Z,98510.94
2017-08-09T11:54:29.646Z,98506.76
2017-08-09T11:56:59.076Z,98502.39
2017-08-09T11:59:28.529Z,98494.44
2017-08-09T12:01:57.988Z,98491.08
2017-08-09T12:04:27.506Z,98486.31
2017-08-09T12:06:56.968Z,98483.93
2017-08-09T12:09:26.421Z,98481.73
2017-08-09T12:11:55.854Z,98471.82
2017-08-09T12:14:25.302Z,98460.86
2017-08-09T12:16:54.736Z,98463.66
2017-08-09T12:19:24.186Z,98454.52
2017-08-09T12:21:53.696Z,98454.11
2017-08-09T12:24:23.137Z,98450.31
2017-08-09T12:26:52.577Z,98446.08
2017-08-09T12:29:22.083Z,98442.98
2017-08-09T12:31:51.563Z,98440.28
2017-08-09T12:34:21.006Z,98433.48
2017-08-09T12:36:50.549Z,98424.55
2017-08-09T12:39:19.985Z,98423.09
2017-08-09T12:41:49.440Z,98415.75
2017-08-09T12:44:18.900Z,98409.77
2017-08-09T12:46:48.356Z,98410.80
2017-08-09T12:49:17.785Z,98413.73
2017-08-09T12:51:47.237Z,98414.41
2017-08-09T12:54:16.690Z,98411.32
2017-08-09T12:56:46.175Z,98406.91
2017-08-09T12:59:15.638Z,98401.36
2017-08-09T13:01:45.081Z,98399.72
2017-08-09T13:04:14.542Z,98400.95
2017-08-09T13:06:43.976Z,98396.36
2017-08-09T13:09:13.416Z,98400.41
2017-08-09T13:11:42.870Z,98396.92
2017-08-09T13:14:12.311Z,98388.02
2017-08-09T13:16:41.758Z,98392.73
2017-08-09T13:19:11.200Z,98388.59
2017-08-09T13:21:40.648Z,98385.56
2017-08-09T13:24:10.085Z,98379.28
2017-08-09T13:26:39.539Z,98378.13
2017-08-09T13:29:08.992Z,98379.48
2017-08-09T13:31:38.433Z,98375.30
2017-08-09T13:34:07.894Z,98369.70
2017-08-09T13:36:37.330Z,98375.08
2017-08-09T13:39:06.828Z,98366.14
2017-08-09T13:41:36.299Z,98356.16
2017-08-09T13:44:05.752Z,98353.34
2017-08-09T13:46:35.200Z,98352.20
2017-08-09T13:49:05.323Z,98349.80
2017-08-09T13:51:34.808Z,98340.85
2017-08-09T13:54:04.256Z,98337.38
2017-08-09T13:56:33.756Z,98328.61
2017-08-09T14:01:41.725Z,98324.83
2017-08-09T14:04:11.178Z,98326.97
2017-08-09T14:06:40.638Z,98323.90
2017-08-09T14:09:10.112Z,98316.34
2017-08-09T14:11:39.553Z,98315.89
2017-08-09T14:14:09.001Z,98318.31
2017-08-09T14:16:38.460Z,98316.45
2017-08-09T14:19:07.919Z,98315.89
2017-08-09T14:21:37.348Z,98312.12
2017-08-09T14:24:06.808Z,98309.39
2017-08-09T14:26:36.292Z,98305.95
2017-08-09T14:29:05.721Z,98304.58
2017-08-09T14:31:35.167Z,98296.09
2017-08-09T14:34:04.656Z,98296.58
2017-08-09T14:36:34.125Z,98289.67
2017-08-09T14:39:03.128Z,98290.76
2017-08-09T14:41:32.564Z,98286.16
2017-08-09T14:44:02.011Z,98287.66
2017-08-09T14:46:31.474Z,98284.20
2017-08-09T14:49:00.916Z,98282.53
2017-08-09T14:51:30.356Z,98275.34
2017-08-09T14:53:59.829Z,98272.27
2017-08-09T14:56:29.264Z,98262.75
2017-08-09T14:58:58.970Z,98262.08
2017-08-09T15:01:29.041Z,98264.03
2017-08-09T15:03:58.489Z,98257.11
2017-08-09T15:06:27.969Z,98256.92
2017-08-09T15:08:57.397Z,98256.63
2017-08-09T15:11:26.803Z,98252.26
2017-08-09T15:13:56.248Z,98253.55
2017-08-09T15:16:25.688Z,98240.16
2017-08-09T15:18:55.130Z,98252.67
2017-08-09T15:21:24.590Z,98251.66
2017-08-09T15:23:54.045Z,98247.44
2017-08-09T15:26:23.473Z,98240.81
2017-08-09T15:28:52.960Z,98240.25
2017-08-09T15:31:22.416Z,98239.32
2017-08-09T15:33:51.878Z,98235.47
2017-08-09T15:36:21.317Z,98232.19
2017-08-09T15:38:50.760Z,98227.56
2017-08-09T15:41:20.240Z,98224.13
2017-08-09T15:43:49.695Z,98218.98
2017-08-09T15:46:19.149Z,98208.68
2017-08-09T15:48:48.619Z,98212.29
2017-08-09T15:51:18.073Z,98212.41
2017-08-09T15:53:47.523Z,98214.39
2017-08-09T15:56:16.960Z,98205.54
2017-08-09T15:58:46.405Z,98212.66
2017-08-09T16:01:15.885Z,98209.77
2017-08-09T16:03:45.321Z,98209.37
2017-08-09T16:06:14.761Z,98203.69
2017-08-09T16:08:44.210Z,98204.81
2017-08-09T16:11:13.655Z,98198.42
2017-08-09T16:13:43.097Z,98196.03
2017-08-09T16:16:12.585Z,98199.78
2017-08-09T16:18:42.004Z,98198.09
2017-08-09T16:21:11.459Z,98194.42
2017-08-09T16:23:40.924Z,98187.80
2017-08-09T16:26:10.385Z,98190.48
2017-08-09T16:28:39.822Z,98180.47
2017-08-09T16:31:09.264Z,98179.40
2017-08-09T16:33:38.700Z,98176.17
2017-08-09T16:36:08.161Z,98169.14
2017-08-09T16:38:37.696Z,98173.09
2017-08-09T16:41:07.183Z,98164.34
2017-08-09T16:43:36.624Z,98165.25
2017-08-09T16:46:06.076Z,98161.08
2017-08-09T16:48:35.546Z,98160.35
2017-08-09T16:51:05.009Z,98156.41
2017-08-09T16:53:34.468Z,98152.42
2017-08-09T16:56:03.932Z,98158.84
2017-08-09T16:58:33.372Z,98150.17
2017-08-09T17:01:02.858Z,98154.55
2017-08-09T17:03:33.056Z,98152.02
2017-08-09T17:06:02.497Z,98148.98
2017-08-09T17:08:31.949Z,98147.30
2017-08-09T17:11:01.398Z,98153.87
2017-08-09T17:13:30.856Z,98156.82
2017-08-09T17:16:00.300Z,98150.02
2017-08-09T17:18:29.748Z,98154.30
2017-08-09T17:20:59.200Z,98153.42
2017-08-09T17:23:28.657Z,98147.69
2017-08-09T17:25:58.094Z,98153.06
2017-08-09T17:28:27.540Z,98146.97
2017-08-09T17:30:56.986Z,98154.02
2017-08-09T17:33:26.431Z,98151.80
2017-08-09T17:35:55.874Z,98155.41
2017-08-09T17:38:25.308Z,98153.27
2017-08-09T17:40:54.749Z,98139.77
2017-08-09T17:43:24.215Z,98147.68
2017-08-09T17:45:53.661Z,98153.12
2017-08-09T17:48:23.117Z,98137.14
2017-08-09T17:50:52.550Z,98130.45
2017-08-09T17:53:22.018Z,98129.27
2017-08-09T17:55:51.455Z,98130.42
2017-08-09T17:58:20.897Z,98132.17
2017-08-09T18:00:50.415Z,98128.45
2017-08-09T18:03:19.857Z,98132.98
2017-08-09T18:05:49.308Z,98135.66
2017-08-09T18:08:18.761Z,98131.16
2017-08-09T18:10:48.221Z,98128.00
2017-08-09T18:13:17.410Z,98132.61
2017-08-09T18:15:46.857Z,98146.33
2017-08-09T18:18:16.299Z,98140.63
2017-08-09T18:20:45.761Z,98136.34
2017-08-09T18:23:15.212Z,98137.74
2017-08-09T18:25:44.675Z,98142.71
2017-08-09T18:28:14.239Z,98147.00
2017-08-09T18:30:43.698Z,98140.70
2017-08-09T18:33:13.151Z,98140.34
2017-08-09T18:35:42.577Z,98151.42
2017-08-09T18:38:12.036Z,98154.18
2017-08-09T18:40:41.478Z,98154.70
2017-08-09T18:43:10.932Z,98165.59
2017-08-09T18:45:40.395Z,98171.78
2017-08-09T18:48:09.852Z,98177.94
2017-08-09T18:50:39.300Z,98168.30
2017-08-09T18:53:08.772Z,98179.86
2017-08-09T18:55:38.269Z,98182.79
2017-08-09T18:58:07.706Z,98182.03
2017-08-09T19:00:37.267Z,98187.46
2017-08-09T19:03:06.778Z,98180.83
2017-08-09T19:05:36.246Z,98179.14
2017-08-09T19:08:05.714Z,98176.91
2017-08-09T19:10:35.164Z,98171.83
2017-08-09T19:13:04.633Z,98181.73
2017-08-09T19:15:34.094Z,98177.92
2017-08-09T19:18:03.554Z,98179.34
2017-08-09T19:20:33.015Z,98178.19
2017-08-09T19:23:02.476Z,98175.02
2017-08-09T19:25:31.941Z,98174.55
2017-08-09T19:28:01.416Z,98178.67
2017-08-09T19:30:30.844Z,98188.80
2017-08-09T19:33:00.317Z,98181.65
2017-08-09T19:35:29.783Z,98184.12
2017-08-09T19:37:59.238Z,98191.69
2017-08-09T19:40:28.698Z,98186.11
2017-08-09T19:42:58.152Z,98185.91
2017-08-09T19:45:27.602Z,98185.64
2017-08-09T19:47:57.086Z,98183.52
2017-08-09T19:50:26.548Z,98187.17
2017-08-09T19:52:56.032Z,98193.73
2017-08-09T19:55:25.510Z,98194.36
2017-08-09T19:57:54.960Z,98190.92
2017-08-09T20:00:24.415Z,98197.91
2017-08-09T20:02:53.900Z,98196.35
2017-08-09T20:05:23.380Z,98207.53
2017-08-09T20:07:52.847Z,98215.16
2017-08-09T20:10:22.345Z,98220.59
2017-08-09T20:12:51.798Z,98222.61
2017-08-09T20:15:21.304Z,98228.28
2017-08-09T20:20:29.328Z,98249.83
2017-08-09T20:22:58.834Z,98261.08
2017-08-09T20:25:28.334Z,98262.77
2017-08-09T20:27:57.794Z,98261.19
2017-08-09T20:30:27.333Z,98276.11
2017-08-09T20:32:56.803Z,98289.13
2017-08-09T20:35:26.284Z,98288.69
2017-08-09T20:37:55.749Z,98294.14
2017-08-09T20:40:25.223Z,98298.27
2017-08-09T20:42:54.708Z,98294.98
2017-08-09T20:45:24.187Z,98300.75
2017-08-09T20:47:53.655Z,98302.08
2017-08-09T20:50:23.200Z,98308.27
2017-08-09T20:55:44.156Z,98308.00
2017-08-09T20:58:13.620Z,98323.42
2017-08-09T21:00:43.139Z,98348.74
2017-08-09T21:03:12.614Z,98349.08
2017-08-09T21:05:42.050Z,98358.43
2017-08-09T21:08:11.513Z,98365.38
2017-08-09T21:10:40.985Z,98397.20
2017-08-09T21:13:10.458Z,98409.30
2017-08-09T21:15:39.904Z,98420.34
2017-08-09T21:18:09.373Z,98455.09
2017-08-09T21:20:38.827Z,98461.59
2017-08-09T21:23:08.300Z,98486.11
2017-08-09T21:25:37.774Z,98507.44
2017-08-09T21:28:07.241Z,98525.36
2017-08-09T21:30:36.675Z,98541.58
2017-08-09T21:33:05.953Z,98570.77
2017-08-09T21:35:35.403Z,98606.44
2017-08-09T21:38:04.857Z,98642.03
2017-08-09T21:40:34.327Z,98664.31
2017-08-09T21:43:03.765Z,98644.83
2017-08-09T21:45:33.214Z,98624.84
2017-08-09T21:48:02.667Z,98603.12
2017-08-09T21:50:32.113Z,98606.17
2017-08-09T21:53:01.562Z,98572.43
2017-08-09T21:55:31.374Z,98545.05
2017-08-09T21:58:00.824Z,98540.66
2017-08-09T22:00:35.748Z,98508.00
2017-08-09T22:03:16.443Z,98482.20
2017-08-09T22:05:45.901Z,98466.81
2017-08-09T22:08:15.344Z,98473.44
2017-08-09T22:10:44.813Z,98483.14
2017-08-09T22:13:14.267Z,98498.41
2017-08-09T22:15:43.711Z,98509.88
2017-08-09T22:18:13.176Z,98523.05
2017-08-09T22:20:42.629Z,98540.92
2017-08-09T22:23:12.197Z,98554.94
2017-08-09T22:25:41.643Z,98574.93
2017-08-09T22:28:11.125Z,98576.87
2017-08-09T22:30:40.574Z,98583.84
2017-08-09T22:33:10.054Z,98643.11
2017-08-09T22:35:39.515Z,98644.69
2017-08-09T22:38:08.944Z,98669.16
2017-08-09T22:40:38.381Z,98654.34
2017-08-09T22:43:07.823Z,98642.08
2017-08-09T22:45:37.298Z,98636.18
2017-08-09T22:48:06.738Z,98624.83
2017-08-09T22:50:36.178Z,98626.57
2017-08-09T22:53:06.380Z,98608.55
2017-08-09T22:55:35.816Z,98600.30
2017-08-09T22:58:05.290Z,98595.56
2017-08-09T23:00:34.726Z,98603.25
2017-08-09T23:03:04.164Z,98620.81
2017-08-09T23:05:33.621Z,98612.84
2017-08-09T23:08:03.068Z,98603.39
2017-08-09T23:10:32.506Z,98610.33
2017-08-09T23:13:01.949Z,98615.71
2017-08-09T23:15:31.398Z,98607.72
2017-08-09T23:18:00.841Z,98592.06
2017-08-09T23:20:30.284Z,98591.64
2017-08-09T23:22:59.719Z,98590.52
2017-08-09T23:25:29.181Z,98576.27
2017-08-09T23:27:58.625Z,98560.56
2017-08-09T23:30:27.960Z,98546.99
2017-08-09T23:32:57.413Z,98558.50
2017-08-09T23:35:26.862Z,98564.42
2017-08-09T23:37:56.305Z,98567.52
2017-08-09T23:40:25.736Z,98574.87
2017-08-09T23:42:55.185Z,98585.39
2017-08-09T23:45:24.645Z,98595.00
2017-08-09T23:47:54.082Z,98584.52
2017-08-09T23:50:23.557Z,98590.58
2017-08-09T23:52:53.020Z,98591.48
2017-08-09T23:55:22.508Z,98586.66
2017-08-09T23:57:51.980Z,98579.55
